Terminal Aerodrome Forecast
Issued by NWS Mt. Holly, NJ

Home | Current Version | Previous Version | Text Only | Print | Product List | Glossary On
Versions: 1 2 3 4 5 6 7 8 9 10 11 12 13 14
919
FTUS41 KPHI 251742
TAFACY
TAF
KACY 251742Z 2518/2618 23008KT P6SM BKN250
     FM252100 34008KT P6SM BKN050
     FM260000 05008KT P6SM BKN040
     FM260400 06010KT P6SM OVC025
     FM260900 06012KT 6SM BR OVC015
     FM261200 07012KT 5SM -DZ BR OVC012
      TEMPO 2612/2616 BKN008=

USA.gov is the U.S. government's official web portal to all federal, state and local government web resources and services.